sensor_id;sensor_type;location;lat;lon;timestamp;pressure;altitude;pressure_sealevel;temperature;humidity
78990;BME280;68390;52.130;21.218;2023-03-13T00:01:02;100127.84;;;-0.33;70.76
78990;BME280;68390;52.130;21.218;2023-03-13T00:03:33;100109.81;;;-0.33;71.17
78990;BME280;68390;52.130;21.218;2023-03-13T00:05:59;100116.81;;;-0.30;70.66
78990;BME280;68390;52.130;21.218;2023-03-13T00:08:28;100106.88;;;-0.30;71.93
78990;BME280;68390;52.130;21.218;2023-03-13T00:10:53;100110.34;;;-0.28;71.51
78990;BME280;68390;52.130;21.218;2023-03-13T00:13:19;100102.25;;;-0.28;71.01
78990;BME280;68390;52.130;21.218;2023-03-13T00:15:44;100098.59;;;-0.27;71.57
78990;BME280;68390;52.130;21.218;2023-03-13T00:18:10;100104.75;;;-0.25;71.33
78990;BME280;68390;52.130;21.218;2023-03-13T00:20:36;100102.81;;;-0.23;70.68
78990;BME280;68390;52.130;21.218;2023-03-13T00:23:01;100085.75;;;-0.23;71.28
78990;BME280;68390;52.130;21.218;2023-03-13T00:25:27;100096.44;;;-0.22;70.95
78990;BME280;68390;52.130;21.218;2023-03-13T00:27:52;100090.91;;;-0.20;70.92
78990;BME280;68390;52.130;21.218;2023-03-13T00:30:18;100090.06;;;-0.21;71.46
78990;BME280;68390;52.130;21.218;2023-03-13T00:32:45;100088.84;;;-0.17;70.48
78990;BME280;68390;52.130;21.218;2023-03-13T00:35:12;100087.78;;;-0.14;71.07
78990;BME280;68390;52.130;21.218;2023-03-13T00:37:37;100087.69;;;-0.13;70.93
78990;BME280;68390;52.130;21.218;2023-03-13T00:40:04;100083.16;;;-0.12;71.12
78990;BME280;68390;52.130;21.218;2023-03-13T00:42:30;100075.66;;;-0.09;70.97
78990;BME280;68390;52.130;21.218;2023-03-13T00:44:56;100079.22;;;-0.08;70.98
78990;BME280;68390;52.130;21.218;2023-03-13T00:47:21;100080.84;;;-0.06;71.39
78990;BME280;68390;52.130;21.218;2023-03-13T00:49:47;100086.25;;;-0.06;71.56
78990;BME280;68390;52.130;21.218;2023-03-13T00:52:12;100082.69;;;-0.06;72.41
78990;BME280;68390;52.130;21.218;2023-03-13T00:54:38;100086.25;;;-0.06;71.57
78990;BME280;68390;52.130;21.218;2023-03-13T00:57:04;100081.81;;;-0.07;71.79
78990;BME280;68390;52.130;21.218;2023-03-13T00:59:29;100078.16;;;-0.06;71.76
78990;BME280;68390;52.130;21.218;2023-03-13T01:01:55;100086.25;;;-0.06;72.11
78990;BME280;68390;52.130;21.218;2023-03-13T01:04:20;100075.47;;;-0.06;72.14
78990;BME280;68390;52.130;21.218;2023-03-13T01:06:46;100074.50;;;-0.05;72.55
78990;BME280;68390;52.130;21.218;2023-03-13T01:09:13;100079.78;;;-0.03;71.97
78990;BME280;68390;52.130;21.218;2023-03-13T01:11:41;100064.56;;;-0.04;71.52
78990;BME280;68390;52.130;21.218;2023-03-13T01:14:18;100064.34;;;-0.01;72.64
78990;BME280;68390;52.130;21.218;2023-03-13T01:16:44;100057.84;;;0.02;72.51
78990;BME280;68390;52.130;21.218;2023-03-13T01:19:12;100057.84;;;0.02;71.79
78990;BME280;68390;52.130;21.218;2023-03-13T01:21:38;100051.34;;;0.04;71.34
78990;BME280;68390;52.130;21.218;2023-03-13T01:24:04;100036.78;;;0.07;71.10
78990;BME280;68390;52.130;21.218;2023-03-13T01:26:29;100047.47;;;0.08;71.16
78990;BME280;68390;52.130;21.218;2023-03-13T01:28:56;100042.94;;;0.09;71.68
78990;BME280;68390;52.130;21.218;2023-03-13T01:31:25;100050.06;;;0.10;71.21
78990;BME280;68390;52.130;21.218;2023-03-13T01:33:54;100046.34;;;0.11;71.26
78990;BME280;68390;52.130;21.218;2023-03-13T01:36:20;100044.41;;;0.13;70.95
78990;BME280;68390;52.130;21.218;2023-03-13T01:38:48;100039.78;;;0.15;70.02
78990;BME280;68390;52.130;21.218;2023-03-13T01:41:14;100050.34;;;0.18;71.05
78990;BME280;68390;52.130;21.218;2023-03-13T01:43:40;100045.72;;;0.20;71.59
78990;BME280;68390;52.130;21.218;2023-03-13T01:51:26;100033.91;;;0.21;70.60
78990;BME280;68390;52.130;21.218;2023-03-13T01:56:35;100022.78;;;0.25;70.92
78990;BME280;68390;52.130;21.218;2023-03-13T01:59:03;100021.91;;;0.25;70.74
78990;BME280;68390;52.130;21.218;2023-03-13T02:01:29;100013.81;;;0.25;70.47
78990;BME280;68390;52.130;21.218;2023-03-13T02:03:56;100004.75;;;0.26;70.05
78990;BME280;68390;52.130;21.218;2023-03-13T02:06:24;100011.88;;;0.27;71.29
78990;BME280;68390;52.130;21.218;2023-03-13T02:08:55;100015.31;;;0.29;70.56
78990;BME280;68390;52.130;21.218;2023-03-13T02:11:51;100021.22;;;0.34;71.20
78990;BME280;68390;52.130;21.218;2023-03-13T02:14:20;100022.94;;;0.35;70.22
78990;BME280;68390;52.130;21.218;2023-03-13T02:16:46;100018.19;;;0.39;70.88
78990;BME280;68390;52.130;21.218;2023-03-13T02:19:28;100016.09;;;0.42;70.27
78990;BME280;68390;52.130;21.218;2023-03-13T02:22:08;100016.63;;;0.47;70.32
78990;BME280;68390;52.130;21.218;2023-03-13T02:27:59;99991.13;;;0.51;70.26
78990;BME280;68390;52.130;21.218;2023-03-13T02:30:26;99996.25;;;0.54;70.10
78990;BME280;68390;52.130;21.218;2023-03-13T02:32:52;99992.34;;;0.58;70.58
78990;BME280;68390;52.130;21.218;2023-03-13T02:35:20;99987.72;;;0.60;70.86
78990;BME280;68390;52.130;21.218;2023-03-13T02:37:49;99999.22;;;0.62;70.82
78990;BME280;68390;52.130;21.218;2023-03-13T02:40:21;99997.53;;;0.61;70.33
78990;BME280;68390;52.130;21.218;2023-03-13T02:42:48;99996.31;;;0.65;70.35
78990;BME280;68390;52.130;21.218;2023-03-13T02:45:16;99997.91;;;0.68;70.14
78990;BME280;68390;52.130;21.218;2023-03-13T02:47:42;99998.03;;;0.66;70.61
78990;BME280;68390;52.130;21.218;2023-03-13T02:50:08;99992.50;;;0.68;70.83
78990;BME280;68390;52.130;21.218;2023-03-13T02:52:50;99987.97;;;0.68;70.76
78990;BME280;68390;52.130;21.218;2023-03-13T02:55:22;99984.19;;;0.71;70.90
78990;BME280;68390;52.130;21.218;2023-03-13T02:57:49;99988.47;;;0.73;70.94
78990;BME280;68390;52.130;21.218;2023-03-13T03:00:15;99985.75;;;0.73;70.37
78990;BME280;68390;52.130;21.218;2023-03-13T03:02:42;99993.75;;;0.75;70.88
78990;BME280;68390;52.130;21.218;2023-03-13T03:05:09;99990.94;;;0.77;71.07
78990;BME280;68390;52.130;21.218;2023-03-13T03:07:34;99992.66;;;0.78;71.77
78990;BME280;68390;52.130;21.218;2023-03-13T03:10:00;99992.56;;;0.79;71.41
78990;BME280;68390;52.130;21.218;2023-03-13T03:12:26;99987.91;;;0.81;71.50
78990;BME280;68390;52.130;21.218;2023-03-13T03:14:51;99986.78;;;0.84;71.50
78990;BME280;68390;52.130;21.218;2023-03-13T03:17:17;99981.38;;;0.84;71.67
78990;BME280;68390;52.130;21.218;2023-03-13T03:19:43;99983.09;;;0.85;71.65
78990;BME280;68390;52.130;21.218;2023-03-13T03:22:08;99987.41;;;0.87;71.68
78990;BME280;68390;52.130;21.218;2023-03-13T03:24:34;99996.25;;;0.89;71.85
78990;BME280;68390;52.130;21.218;2023-03-13T03:26:59;99988.03;;;0.91;71.71
78990;BME280;68390;52.130;21.218;2023-03-13T03:29:25;99979.81;;;0.92;71.90
78990;BME280;68390;52.130;21.218;2023-03-13T03:31:52;99985.06;;;0.94;71.57
78990;BME280;68390;52.130;21.218;2023-03-13T03:34:17;99978.69;;;0.95;71.75
78990;BME280;68390;52.130;21.218;2023-03-13T03:36:43;99983.97;;;0.96;72.01
78990;BME280;68390;52.130;21.218;2023-03-13T03:39:09;99988.41;;;0.97;72.17
78990;BME280;68390;52.130;21.218;2023-03-13T03:41:34;99982.03;;;0.98;72.14
78990;BME280;68390;52.130;21.218;2023-03-13T03:44:02;99988.19;;;1.00;72.16
78990;BME280;68390;52.130;21.218;2023-03-13T03:46:28;99981.78;;;1.01;72.14
78990;BME280;68390;52.130;21.218;2023-03-13T03:48:53;99986.34;;;1.01;71.69
78990;BME280;68390;52.130;21.218;2023-03-13T03:51:20;99986.06;;;1.04;71.68
78990;BME280;68390;52.130;21.218;2023-03-13T03:53:45;99982.53;;;1.03;72.61
78990;BME280;68390;52.130;21.218;2023-03-13T03:56:11;99986.81;;;1.06;71.64
78990;BME280;68390;52.130;21.218;2023-03-13T03:58:37;99973.31;;;1.06;72.08
78990;BME280;68390;52.130;21.218;2023-03-13T04:01:02;99976.75;;;1.08;71.64
78990;BME280;68390;52.130;21.218;2023-03-13T04:03:28;99981.94;;;1.11;71.66
78990;BME280;68390;52.130;21.218;2023-03-13T04:05:54;99969.28;;;1.12;71.50
78990;BME280;68390;52.130;21.218;2023-03-13T04:08:21;99966.47;;;1.13;71.05
78990;BME280;68390;52.130;21.218;2023-03-13T04:10:47;99961.03;;;1.13;70.92
78990;BME280;68390;52.130;21.218;2023-03-13T04:13:13;99962.03;;;1.12;70.89
78990;BME280;68390;52.130;21.218;2023-03-13T04:15:39;99956.50;;;1.14;70.33
78990;BME280;68390;52.130;21.218;2023-03-13T04:18:05;99957.38;;;1.14;70.63
78990;BME280;68390;52.130;21.218;2023-03-13T04:20:31;99948.97;;;1.17;70.77
78990;BME280;68390;52.130;21.218;2023-03-13T04:22:56;99947.88;;;1.20;71.77
78990;BME280;68390;52.130;21.218;2023-03-13T04:25:22;99942.38;;;1.21;70.23
78990;BME280;68390;52.130;21.218;2023-03-13T04:27:47;99942.13;;;1.24;70.98
78990;BME280;68390;52.130;21.218;2023-03-13T04:30:13;99949.09;;;1.27;70.18
78990;BME280;68390;52.130;21.218;2023-03-13T04:32:39;99949.00;;;1.28;69.89
78990;BME280;68390;52.130;21.218;2023-03-13T04:35:05;99936.22;;;1.30;70.44
78990;BME280;68390;52.130;21.218;2023-03-13T04:37:31;99938.69;;;1.33;69.62
78990;BME280;68390;52.130;21.218;2023-03-13T04:39:56;99938.56;;;1.35;70.26
78990;BME280;68390;52.130;21.218;2023-03-13T04:42:22;99933.97;;;1.35;70.68
78990;BME280;68390;52.130;21.218;2023-03-13T04:44:47;99932.13;;;1.36;70.88
78990;BME280;68390;52.130;21.218;2023-03-13T04:47:13;99924.88;;;1.36;72.09
78990;BME280;68390;52.130;21.218;2023-03-13T04:49:39;99920.34;;;1.37;72.25
78990;BME280;68390;52.130;21.218;2023-03-13T04:52:05;99911.25;;;1.38;73.34
78990;BME280;68390;52.130;21.218;2023-03-13T04:54:30;99914.81;;;1.38;73.53
78990;BME280;68390;52.130;21.218;2023-03-13T04:56:56;99915.78;;;1.37;74.44
78990;BME280;68390;52.130;21.218;2023-03-13T04:59:22;99917.50;;;1.38;74.23
78990;BME280;68390;52.130;21.218;2023-03-13T05:01:47;99917.50;;;1.38;74.60
78990;BME280;68390;52.130;21.218;2023-03-13T05:04:13;99925.50;;;1.40;75.60
78990;BME280;68390;52.130;21.218;2023-03-13T05:06:38;99919.00;;;1.42;75.50
78990;BME280;68390;52.130;21.218;2023-03-13T05:09:04;99911.75;;;1.43;75.15
78990;BME280;68390;52.130;21.218;2023-03-13T05:11:30;99905.47;;;1.42;76.12
78990;BME280;68390;52.130;21.218;2023-03-13T05:13:56;99899.09;;;1.43;75.52
78990;BME280;68390;52.130;21.218;2023-03-13T05:16:22;99903.50;;;1.44;75.98
78990;BME280;68390;52.130;21.218;2023-03-13T05:18:47;99897.81;;;1.47;75.01
78990;BME280;68390;52.130;21.218;2023-03-13T05:21:13;99906.56;;;1.51;75.41
78990;BME280;68390;52.130;21.218;2023-03-13T05:23:38;99899.19;;;1.53;75.38
78990;BME280;68390;52.130;21.218;2023-03-13T05:26:04;99900.06;;;1.54;75.82
78990;BME280;68390;52.130;21.218;2023-03-13T05:28:30;99902.38;;;1.58;76.40
78990;BME280;68390;52.130;21.218;2023-03-13T05:30:56;99902.38;;;1.58;76.13
78990;BME280;68390;52.130;21.218;2023-03-13T05:33:21;99902.97;;;1.62;76.55
78990;BME280;68390;52.130;21.218;2023-03-13T05:35:47;99902.84;;;1.63;76.85
78990;BME280;68390;52.130;21.218;2023-03-13T05:38:13;99891.91;;;1.65;76.86
78990;BME280;68390;52.130;21.218;2023-03-13T05:40:39;99909.88;;;1.66;77.33
78990;BME280;68390;52.130;21.218;2023-03-13T05:43:04;99903.31;;;1.68;77.19
78990;BME280;68390;52.130;21.218;2023-03-13T05:45:30;99905.91;;;1.70;77.75
78990;BME280;68390;52.130;21.218;2023-03-13T05:47:56;99903.69;;;1.75;77.43
78990;BME280;68390;52.130;21.218;2023-03-13T05:50:23;99916.72;;;1.81;77.84
78990;BME280;68390;52.130;21.218;2023-03-13T05:52:49;99905.53;;;1.86;78.00
78990;BME280;68390;52.130;21.218;2023-03-13T05:55:15;99909.66;;;1.90;77.98
78990;BME280;68390;52.130;21.218;2023-03-13T05:57:45;99913.84;;;1.94;78.18
78990;BME280;68390;52.130;21.218;2023-03-13T06:00:12;99917.88;;;1.99;78.03
78990;BME280;68390;52.130;21.218;2023-03-13T06:02:38;99924.16;;;2.00;78.05
78990;BME280;68390;52.130;21.218;2023-03-13T06:05:04;99920.34;;;2.02;78.19
78990;BME280;68390;52.130;21.218;2023-03-13T06:07:30;99923.06;;;2.02;78.42
78990;BME280;68390;52.130;21.218;2023-03-13T06:09:55;99913.34;;;2.00;78.46
78990;BME280;68390;52.130;21.218;2023-03-13T06:12:21;99899.53;;;2.03;78.66
78990;BME280;68390;52.130;21.218;2023-03-13T06:14:46;99897.56;;;2.05;78.75
78990;BME280;68390;52.130;21.218;2023-03-13T06:17:12;99889.16;;;2.08;78.88
78990;BME280;68390;52.130;21.218;2023-03-13T06:19:37;99897.91;;;2.11;78.68
78990;BME280;68390;52.130;21.218;2023-03-13T06:22:03;99896.91;;;2.12;78.87
78990;BME280;68390;52.130;21.218;2023-03-13T06:24:29;99906.78;;;2.13;79.89
78990;BME280;68390;52.130;21.218;2023-03-13T06:26:54;99907.50;;;2.15;80.36
78990;BME280;68390;52.130;21.218;2023-03-13T06:29:20;99898.13;;;2.19;80.10
78990;BME280;68390;52.130;21.218;2023-03-13T06:31:45;99895.03;;;2.24;79.96
78990;BME280;68390;52.130;21.218;2023-03-13T06:34:12;99894.63;;;2.29;80.51
78990;BME280;68390;52.130;21.218;2023-03-13T06:36:37;99884.53;;;2.31;80.69
78990;BME280;68390;52.130;21.218;2023-03-13T06:39:03;99898.81;;;2.33;80.59
78990;BME280;68390;52.130;21.218;2023-03-13T06:41:29;99902.50;;;2.32;81.22
78990;BME280;68390;52.130;21.218;2023-03-13T06:43:54;99896.94;;;2.33;81.37
78990;BME280;68390;52.130;21.218;2023-03-13T06:46:22;99889.44;;;2.37;81.61
78990;BME280;68390;52.130;21.218;2023-03-13T06:48:49;99885.75;;;2.38;81.32
78990;BME280;68390;52.130;21.218;2023-03-13T06:51:17;99890.63;;;2.44;81.15
78990;BME280;68390;52.130;21.218;2023-03-13T06:53:43;99891.34;;;2.46;81.34
78990;BME280;68390;52.130;21.218;2023-03-13T06:56:09;99890.38;;;2.47;81.60
78990;BME280;68390;52.130;21.218;2023-03-13T06:58:35;99887.25;;;2.51;82.06
78990;BME280;68390;52.130;21.218;2023-03-13T07:01:06;99877.00;;;2.55;81.78
78990;BME280;68390;52.130;21.218;2023-03-13T07:03:32;99882.88;;;2.60;82.01
78990;BME280;68390;52.130;21.218;2023-03-13T07:05:58;99884.22;;;2.66;82.13
78990;BME280;68390;52.130;21.218;2023-03-13T07:08:49;99881.09;;;2.70;81.68
78990;BME280;68390;52.130;21.218;2023-03-13T07:11:15;99878.97;;;2.74;81.89
78990;BME280;68390;52.130;21.218;2023-03-13T07:13:41;99865.16;;;2.77;82.29
78990;BME280;68390;52.130;21.218;2023-03-13T07:16:11;99865.47;;;2.83;81.26
78990;BME280;68390;52.130;21.218;2023-03-13T07:18:38;99866.22;;;2.85;81.14
78990;BME280;68390;52.130;21.218;2023-03-13T07:21:06;99859.66;;;2.88;81.16
78990;BME280;68390;52.130;21.218;2023-03-13T07:23:33;99860.97;;;2.93;81.50
78990;BME280;68390;52.130;21.218;2023-03-13T07:26:01;99864.16;;;2.99;81.11
78990;BME280;68390;52.130;21.218;2023-03-13T07:28:28;99859.28;;;3.02;80.75
78990;BME280;68390;52.130;21.218;2023-03-13T07:31:02;99858.75;;;3.08;80.94
78990;BME280;68390;52.130;21.218;2023-03-13T07:33:27;99857.47;;;3.12;81.16
78990;BME280;68390;52.130;21.218;2023-03-13T07:35:53;99867.06;;;3.16;81.12
78990;BME280;68390;52.130;21.218;2023-03-13T07:38:19;99853.09;;;3.21;80.63
78990;BME280;68390;52.130;21.218;2023-03-13T07:40:48;99847.97;;;3.27;80.64
78990;BME280;68390;52.130;21.218;2023-03-13T07:43:14;99835.00;;;3.31;80.25
78990;BME280;68390;52.130;21.218;2023-03-13T07:46:02;99844.56;;;3.35;80.20
78990;BME280;68390;52.130;21.218;2023-03-13T07:48:30;99848.31;;;3.44;81.00
78990;BME280;68390;52.130;21.218;2023-03-13T07:50:56;99839.75;;;3.48;79.89
78990;BME280;68390;52.130;21.218;2023-03-13T07:53:22;99843.75;;;3.54;79.52
78990;BME280;68390;52.130;21.218;2023-03-13T07:55:58;99837.78;;;3.60;79.34
78990;BME280;68390;52.130;21.218;2023-03-13T07:58:27;99836.09;;;3.68;79.58
78990;BME280;68390;52.130;21.218;2023-03-13T08:00:53;99830.53;;;3.80;79.37
78990;BME280;68390;52.130;21.218;2023-03-13T08:03:20;99835.09;;;3.89;79.19
78990;BME280;68390;52.130;21.218;2023-03-13T08:05:45;99832.38;;;3.98;79.12
78990;BME280;68390;52.130;21.218;2023-03-13T08:08:11;99837.69;;;4.10;78.82
78990;BME280;68390;52.130;21.218;2023-03-13T08:10:36;99834.38;;;4.16;78.18
78990;BME280;68390;52.130;21.218;2023-03-13T08:13:02;99834.97;;;4.19;77.81
78990;BME280;68390;52.130;21.218;2023-03-13T08:15:28;99838.41;;;4.21;77.37
78990;BME280;68390;52.130;21.218;2023-03-13T08:17:54;99827.53;;;4.21;77.21
78990;BME280;68390;52.130;21.218;2023-03-13T08:20:21;99833.97;;;4.20;76.98
78990;BME280;68390;52.130;21.218;2023-03-13T08:22:46;99828.13;;;4.25;77.55
78990;BME280;68390;52.130;21.218;2023-03-13T08:25:13;99821.38;;;4.29;76.94
78990;BME280;68390;52.130;21.218;2023-03-13T08:27:38;99824.66;;;4.32;77.09
78990;BME280;68390;52.130;21.218;2023-03-13T08:30:04;99817.78;;;4.38;77.40
78990;BME280;68390;52.130;21.218;2023-03-13T08:32:34;99825.22;;;4.46;77.32
78990;BME280;68390;52.130;21.218;2023-03-13T08:35:12;99820.91;;;4.53;76.90
78990;BME280;68390;52.130;21.218;2023-03-13T08:37:38;99814.88;;;4.59;76.48
78990;BME280;68390;52.130;21.218;2023-03-13T08:40:04;99819.28;;;4.69;77.09
78990;BME280;68390;52.130;21.218;2023-03-13T08:42:35;99813.28;;;4.75;75.88
78990;BME280;68390;52.130;21.218;2023-03-13T08:45:01;99805.38;;;4.82;76.02
78990;BME280;68390;52.130;21.218;2023-03-13T08:47:26;99808.75;;;4.94;75.61
78990;BME280;68390;52.130;21.218;2023-03-13T08:49:52;99808.59;;;5.05;76.47
78990;BME280;68390;52.130;21.218;2023-03-13T08:52:19;99802.22;;;5.14;75.62
78990;BME280;68390;52.130;21.218;2023-03-13T08:54:47;99794.88;;;5.24;75.21
78990;BME280;68390;52.130;21.218;2023-03-13T08:57:12;99792.66;;;5.37;76.20
78990;BME280;68390;52.130;21.218;2023-03-13T08:59:38;99791.59;;;5.48;74.87
78990;BME280;68390;52.130;21.218;2023-03-13T09:02:04;99783.22;;;5.59;74.52
78990;BME280;68390;52.130;21.218;2023-03-13T09:04:30;99779.94;;;5.73;74.76
78990;BME280;68390;52.130;21.218;2023-03-13T09:06:55;99772.25;;;5.86;74.71
78990;BME280;68390;52.130;21.218;2023-03-13T09:09:21;99765.44;;;6.00;74.87
78990;BME280;68390;52.130;21.218;2023-03-13T09:11:46;99762.69;;;6.18;74.55
78990;BME280;68390;52.130;21.218;2023-03-13T09:14:12;99745.25;;;6.37;74.11
78990;BME280;68390;52.130;21.218;2023-03-13T09:16:37;99753.06;;;6.57;74.47
78990;BME280;68390;52.130;21.218;2023-03-13T09:19:03;99745.66;;;6.76;72.07
78990;BME280;68390;52.130;21.218;2023-03-13T09:21:31;99742.53;;;6.96;71.80
78990;BME280;68390;52.130;21.218;2023-03-13T09:23:57;99741.97;;;7.19;71.97
78990;BME280;68390;52.130;21.218;2023-03-13T09:26:24;99739.47;;;7.33;70.78
78990;BME280;68390;52.130;21.218;2023-03-13T09:28:53;99733.53;;;7.46;70.04
78990;BME280;68390;52.130;21.218;2023-03-13T09:31:28;99730.97;;;7.61;71.15
78990;BME280;68390;52.130;21.218;2023-03-13T09:33:54;99724.88;;;7.75;69.35
78990;BME280;68390;52.130;21.218;2023-03-13T09:36:20;99723.84;;;7.92;69.67
78990;BME280;68390;52.130;21.218;2023-03-13T09:38:49;99717.69;;;8.15;70.02
78990;BME280;68390;52.130;21.218;2023-03-13T09:44:34;99711.88;;;8.58;67.44
78990;BME280;68390;52.130;21.218;2023-03-13T09:47:08;99711.66;;;8.68;67.10
78990;BME280;68390;52.130;21.218;2023-03-13T09:50:08;99712.16;;;8.79;66.90
78990;BME280;68390;52.130;21.218;2023-03-13T09:52:40;99686.28;;;8.90;67.20
78990;BME280;68390;52.130;21.218;2023-03-13T09:55:17;99693.72;;;9.04;67.48
78990;BME280;68390;52.130;21.218;2023-03-13T09:58:01;99692.47;;;9.15;66.32
78990;BME280;68390;52.130;21.218;2023-03-13T10:00:39;99687.47;;;9.27;66.45
78990;BME280;68390;52.130;21.218;2023-03-13T10:05:53;99690.31;;;9.41;65.75
78990;BME280;68390;52.130;21.218;2023-03-13T10:08:26;99675.19;;;9.45;65.04
78990;BME280;68390;52.130;21.218;2023-03-13T10:13:36;99655.56;;;9.65;64.68
78990;BME280;68390;52.130;21.218;2023-03-13T10:16:06;99666.91;;;9.76;65.71
78990;BME280;68390;52.130;21.218;2023-03-13T10:18:34;99654.75;;;9.79;63.70
78990;BME280;68390;52.130;21.218;2023-03-13T10:21:16;99650.88;;;9.88;65.07
78990;BME280;68390;52.130;21.218;2023-03-13T10:23:52;99646.84;;;9.99;65.19
78990;BME280;68390;52.130;21.218;2023-03-13T10:26:31;99646.81;;;10.07;63.45
78990;BME280;68390;52.130;21.218;2023-03-13T10:29:18;99648.63;;;10.14;63.72
78990;BME280;68390;52.130;21.218;2023-03-13T10:34:21;99645.69;;;10.16;63.56
78990;BME280;68390;52.130;21.218;2023-03-13T10:36:49;99649.59;;;10.21;63.76
78990;BME280;68390;52.130;21.218;2023-03-13T10:39:21;99650.94;;;10.25;63.89
78990;BME280;68390;52.130;21.218;2023-03-13T10:41:48;99648.47;;;10.30;63.36
78990;BME280;68390;52.130;21.218;2023-03-13T10:44:20;99635.16;;;10.27;61.61
78990;BME280;68390;52.130;21.218;2023-03-13T10:46:48;99633.22;;;10.28;62.19
78990;BME280;68390;52.130;21.218;2023-03-13T10:49:15;99636.63;;;10.30;62.21
78990;BME280;68390;52.130;21.218;2023-03-13T10:51:50;99632.69;;;10.33;62.85
78990;BME280;68390;52.130;21.218;2023-03-13T10:56:49;99617.38;;;10.38;62.41
78990;BME280;68390;52.130;21.218;2023-03-13T10:59:25;99615.38;;;10.47;62.24
78990;BME280;68390;52.130;21.218;2023-03-13T11:01:52;99602.69;;;10.46;62.67
78990;BME280;68390;52.130;21.218;2023-03-13T11:04:33;99605.44;;;10.46;63.49
78990;BME280;68390;52.130;21.218;2023-03-13T11:07:04;99594.81;;;10.43;64.38
78990;BME280;68390;52.130;21.218;2023-03-13T11:09:30;99584.16;;;10.48;64.24
78990;BME280;68390;52.130;21.218;2023-03-13T11:12:03;99591.59;;;10.54;64.50
78990;BME280;68390;52.130;21.218;2023-03-13T11:14:30;99588.88;;;10.54;63.33
78990;BME280;68390;52.130;21.218;2023-03-13T11:19:45;99574.22;;;10.47;63.29
78990;BME280;68390;52.130;21.218;2023-03-13T11:25:34;99564.06;;;10.47;61.13
78990;BME280;68390;52.130;21.218;2023-03-13T11:28:09;99561.53;;;10.46;61.23
78990;BME280;68390;52.130;21.218;2023-03-13T11:36:27;99554.47;;;10.73;61.11
78990;BME280;68390;52.130;21.218;2023-03-13T11:39:10;99544.13;;;10.89;60.59
78990;BME280;68390;52.130;21.218;2023-03-13T11:44:30;99532.09;;;11.12;60.27
78990;BME280;68390;52.130;21.218;2023-03-13T11:52:26;99498.53;;;11.59;57.43
78990;BME280;68390;52.130;21.218;2023-03-13T11:54:56;99492.66;;;11.68;58.02
78990;BME280;68390;52.130;21.218;2023-03-13T12:00:17;99489.91;;;11.68;57.44
78990;BME280;68390;52.130;21.218;2023-03-13T12:05:19;99483.09;;;11.64;57.71
78990;BME280;68390;52.130;21.218;2023-03-13T12:07:50;99479.56;;;11.70;57.36
78990;BME280;68390;52.130;21.218;2023-03-13T12:10:26;99477.25;;;11.74;57.41
78990;BME280;68390;52.130;21.218;2023-03-13T12:15:27;99474.16;;;11.56;56.76
78990;BME280;68390;52.130;21.218;2023-03-13T12:17:59;99471.94;;;11.45;57.25
78990;BME280;68390;52.130;21.218;2023-03-13T12:20:36;99471.28;;;11.43;58.68
78990;BME280;68390;52.130;21.218;2023-03-13T12:23:17;99471.06;;;11.37;58.92
78990;BME280;68390;52.130;21.218;2023-03-13T12:26:05;99469.34;;;11.36;57.79
78990;BME280;68390;52.130;21.218;2023-03-13T12:31:52;99459.22;;;11.37;58.29
78990;BME280;68390;52.130;21.218;2023-03-13T12:34:38;99461.75;;;11.38;58.77
78990;BME280;68390;52.130;21.218;2023-03-13T12:37:25;99451.63;;;11.39;59.11
78990;BME280;68390;52.130;21.218;2023-03-13T12:42:46;99444.16;;;11.33;60.08
78990;BME280;68390;52.130;21.218;2023-03-13T12:45:17;99448.38;;;11.29;60.37
78990;BME280;68390;52.130;21.218;2023-03-13T12:48:04;99446.84;;;11.26;60.57
78990;BME280;68390;52.130;21.218;2023-03-13T12:51:19;99439.19;;;11.22;61.76
78990;BME280;68390;52.130;21.218;2023-03-13T12:59:23;99424.66;;;11.00;64.50
78990;BME280;68390;52.130;21.218;2023-03-13T13:01:53;99426.66;;;10.91;64.00
78990;BME280;68390;52.130;21.218;2023-03-13T13:04:25;99425.56;;;10.86;65.08
78990;BME280;68390;52.130;21.218;2023-03-13T13:09:26;99416.97;;;10.74;66.17
78990;BME280;68390;52.130;21.218;2023-03-13T13:12:12;99414.38;;;10.66;65.39
78990;BME280;68390;52.130;21.218;2023-03-13T13:17:18;99398.41;;;10.55;66.67
78990;BME280;68390;52.130;21.218;2023-03-13T13:19:48;99398.59;;;10.53;67.30
78990;BME280;68390;52.130;21.218;2023-03-13T13:32:49;99404.25;;;10.30;71.31
78990;BME280;68390;52.130;21.218;2023-03-13T13:35:33;99406.44;;;10.20;70.98
78990;BME280;68390;52.130;21.218;2023-03-13T13:38:28;99403.03;;;10.18;71.48
78990;BME280;68390;52.130;21.218;2023-03-13T13:41:25;99399.44;;;10.18;72.91
78990;BME280;68390;52.130;21.218;2023-03-13T13:44:29;99393.19;;;10.09;72.26
78990;BME280;68390;52.130;21.218;2023-03-13T13:46:56;99393.13;;;10.03;73.98
78990;BME280;68390;52.130;21.218;2023-03-13T13:49:31;99390.75;;;10.00;74.06
78990;BME280;68390;52.130;21.218;2023-03-13T13:57:26;99388.69;;;9.87;75.23
78990;BME280;68390;52.130;21.218;2023-03-13T14:00:38;99382.25;;;9.80;75.55
78990;BME280;68390;52.130;21.218;2023-03-13T14:03:17;99384.94;;;9.73;76.43
78990;BME280;68390;52.130;21.218;2023-03-13T14:05:46;99378.28;;;9.68;76.58
78990;BME280;68390;52.130;21.218;2023-03-13T14:08:19;99381.63;;;9.63;77.55
78990;BME280;68390;52.130;21.218;2023-03-13T14:10:53;99374.31;;;9.55;78.16
78990;BME280;68390;52.130;21.218;2023-03-13T14:13:27;99372.16;;;9.51;78.46
78990;BME280;68390;52.130;21.218;2023-03-13T14:15:56;99378.00;;;9.48;78.50
78990;BME280;68390;52.130;21.218;2023-03-13T14:18:26;99359.00;;;9.46;79.36
78990;BME280;68390;52.130;21.218;2023-03-13T14:21:03;99344.19;;;9.41;79.22
78990;BME280;68390;52.130;21.218;2023-03-13T14:23:45;99336.53;;;9.36;79.21
78990;BME280;68390;52.130;21.218;2023-03-13T14:26:31;99333.53;;;9.31;80.38
78990;BME280;68390;52.130;21.218;2023-03-13T14:29:00;99341.91;;;9.30;79.74
78990;BME280;68390;52.130;21.218;2023-03-13T14:31:29;99336.34;;;9.23;79.55